sensor_id;sensor_type;location;lat;lon;timestamp;P1;durP1;ratioP1;P2;durP2;ratioP2
7729;SDS011;3908;52.310;7.230;2022-10-17T00:02:38;9.33;;;6.27;;
7729;SDS011;3908;52.310;7.230;2022-10-17T00:05:25;10.20;;;7.00;;
7729;SDS011;3908;52.310;7.230;2022-10-17T00:08:13;12.00;;;6.87;;
7729;SDS011;3908;52.310;7.230;2022-10-17T00:11:03;8.30;;;6.27;;
7729;SDS011;3908;52.310;7.230;2022-10-17T00:13:53;9.07;;;7.30;;
7729;SDS011;3908;52.310;7.230;2022-10-17T00:16:42;10.30;;;7.87;;
7729;SDS011;3908;52.310;7.230;2022-10-17T00:19:29;9.07;;;8.07;;
7729;SDS011;3908;52.310;7.230;2022-10-17T00:22:16;15.50;;;8.53;;
7729;SDS011;3908;52.310;7.230;2022-10-17T00:25:04;8.73;;;7.87;;
7729;SDS011;3908;52.310;7.230;2022-10-17T00:27:51;15.07;;;8.63;;
7729;SDS011;3908;52.310;7.230;2022-10-17T00:30:38;10.43;;;7.90;;
7729;SDS011;3908;52.310;7.230;2022-10-17T00:33:27;9.93;;;7.63;;
7729;SDS011;3908;52.310;7.230;2022-10-17T00:36:15;12.20;;;7.77;;
7729;SDS011;3908;52.310;7.230;2022-10-17T00:39:04;12.07;;;9.10;;
7729;SDS011;3908;52.310;7.230;2022-10-17T00:41:51;12.73;;;7.90;;
7729;SDS011;3908;52.310;7.230;2022-10-17T00:44:56;10.17;;;8.77;;
7729;SDS011;3908;52.310;7.230;2022-10-17T00:47:50;11.77;;;8.30;;
7729;SDS011;3908;52.310;7.230;2022-10-17T00:50:41;38.53;;;11.20;;
7729;SDS011;3908;52.310;7.230;2022-10-17T00:53:33;12.63;;;8.67;;
7729;SDS011;3908;52.310;7.230;2022-10-17T00:56:22;12.20;;;9.23;;
7729;SDS011;3908;52.310;7.230;2022-10-17T00:59:10;12.70;;;8.83;;
7729;SDS011;3908;52.310;7.230;2022-10-17T01:01:59;12.20;;;9.47;;
7729;SDS011;3908;52.310;7.230;2022-10-17T01:04:50;9.70;;;8.37;;
7729;SDS011;3908;52.310;7.230;2022-10-17T01:07:41;12.70;;;9.90;;
7729;SDS011;3908;52.310;7.230;2022-10-17T01:10:30;9.60;;;8.50;;
7729;SDS011;3908;52.310;7.230;2022-10-17T01:13:24;11.17;;;9.30;;
7729;SDS011;3908;52.310;7.230;2022-10-17T01:16:18;13.40;;;9.27;;
7729;SDS011;3908;52.310;7.230;2022-10-17T01:22:44;12.10;;;9.50;;
7729;SDS011;3908;52.310;7.230;2022-10-17T01:25:36;11.40;;;9.67;;
7729;SDS011;3908;52.310;7.230;2022-10-17T01:36:30;12.60;;;10.07;;
7729;SDS011;3908;52.310;7.230;2022-10-17T01:39:24;11.60;;;9.20;;
7729;SDS011;3908;52.310;7.230;2022-10-17T01:42:23;12.13;;;9.47;;
7729;SDS011;3908;52.310;7.230;2022-10-17T01:45:17;11.17;;;9.77;;
7729;SDS011;3908;52.310;7.230;2022-10-17T01:48:10;12.00;;;8.57;;
7729;SDS011;3908;52.310;7.230;2022-10-17T01:51:02;12.27;;;10.00;;
7729;SDS011;3908;52.310;7.230;2022-10-17T01:53:59;14.43;;;9.70;;
7729;SDS011;3908;52.310;7.230;2022-10-17T01:56:57;14.50;;;9.97;;
7729;SDS011;3908;52.310;7.230;2022-10-17T01:59:47;10.17;;;8.63;;
7729;SDS011;3908;52.310;7.230;2022-10-17T02:02:38;10.57;;;9.40;;
7729;SDS011;3908;52.310;7.230;2022-10-17T02:05:28;11.60;;;8.87;;
7729;SDS011;3908;52.310;7.230;2022-10-17T02:08:30;11.17;;;9.30;;
7729;SDS011;3908;52.310;7.230;2022-10-17T02:11:28;11.13;;;9.30;;
7729;SDS011;3908;52.310;7.230;2022-10-17T02:14:19;11.27;;;9.63;;
7729;SDS011;3908;52.310;7.230;2022-10-17T02:17:17;11.67;;;9.10;;
7729;SDS011;3908;52.310;7.230;2022-10-17T02:20:15;12.20;;;10.20;;
7729;SDS011;3908;52.310;7.230;2022-10-17T02:23:08;12.33;;;9.33;;
7729;SDS011;3908;52.310;7.230;2022-10-17T02:26:07;13.43;;;10.30;;
7729;SDS011;3908;52.310;7.230;2022-10-17T02:29:03;16.20;;;9.87;;
7729;SDS011;3908;52.310;7.230;2022-10-17T02:32:01;11.33;;;9.93;;
7729;SDS011;3908;52.310;7.230;2022-10-17T02:34:51;14.10;;;10.67;;
7729;SDS011;3908;52.310;7.230;2022-10-17T02:37:42;12.90;;;9.60;;
7729;SDS011;3908;52.310;7.230;2022-10-17T02:40:33;12.47;;;9.83;;
7729;SDS011;3908;52.310;7.230;2022-10-17T02:43:22;12.33;;;9.27;;
7729;SDS011;3908;52.310;7.230;2022-10-17T02:46:11;11.37;;;9.37;;
7729;SDS011;3908;52.310;7.230;2022-10-17T02:49:06;12.70;;;9.70;;
7729;SDS011;3908;52.310;7.230;2022-10-17T02:51:59;13.63;;;10.57;;
7729;SDS011;3908;52.310;7.230;2022-10-17T02:54:56;14.07;;;10.13;;
7729;SDS011;3908;52.310;7.230;2022-10-17T02:57:48;33.40;;;11.40;;
7729;SDS011;3908;52.310;7.230;2022-10-17T03:00:39;38.43;;;11.00;;
7729;SDS011;3908;52.310;7.230;2022-10-17T03:03:29;11.17;;;9.00;;
7729;SDS011;3908;52.310;7.230;2022-10-17T03:06:17;11.80;;;9.20;;
7729;SDS011;3908;52.310;7.230;2022-10-17T03:09:04;10.53;;;9.10;;
7729;SDS011;3908;52.310;7.230;2022-10-17T03:11:52;13.80;;;9.40;;
7729;SDS011;3908;52.310;7.230;2022-10-17T03:14:39;11.50;;;10.13;;
7729;SDS011;3908;52.310;7.230;2022-10-17T03:17:26;11.03;;;9.50;;
7729;SDS011;3908;52.310;7.230;2022-10-17T03:20:14;13.63;;;9.93;;
7729;SDS011;3908;52.310;7.230;2022-10-17T03:23:01;14.93;;;10.40;;
7729;SDS011;3908;52.310;7.230;2022-10-17T03:25:49;12.37;;;10.63;;
7729;SDS011;3908;52.310;7.230;2022-10-17T03:28:36;16.37;;;10.13;;
7729;SDS011;3908;52.310;7.230;2022-10-17T03:31:23;12.40;;;10.10;;
7729;SDS011;3908;52.310;7.230;2022-10-17T03:34:18;11.40;;;9.17;;
7729;SDS011;3908;52.310;7.230;2022-10-17T03:37:07;11.70;;;9.60;;
7729;SDS011;3908;52.310;7.230;2022-10-17T03:39:54;15.10;;;9.70;;
7729;SDS011;3908;52.310;7.230;2022-10-17T03:42:41;14.03;;;10.23;;
7729;SDS011;3908;52.310;7.230;2022-10-17T03:45:29;10.70;;;9.50;;
7729;SDS011;3908;52.310;7.230;2022-10-17T03:48:16;14.97;;;10.67;;
7729;SDS011;3908;52.310;7.230;2022-10-17T03:51:04;12.73;;;9.57;;
7729;SDS011;3908;52.310;7.230;2022-10-17T03:53:56;11.73;;;9.50;;
7729;SDS011;3908;52.310;7.230;2022-10-17T03:56:43;14.03;;;10.63;;
7729;SDS011;3908;52.310;7.230;2022-10-17T03:59:33;15.60;;;10.17;;
7729;SDS011;3908;52.310;7.230;2022-10-17T04:02:20;13.57;;;9.17;;
7729;SDS011;3908;52.310;7.230;2022-10-17T04:05:07;13.07;;;9.87;;
7729;SDS011;3908;52.310;7.230;2022-10-17T04:07:57;11.20;;;9.17;;
7729;SDS011;3908;52.310;7.230;2022-10-17T04:10:46;15.33;;;10.50;;
7729;SDS011;3908;52.310;7.230;2022-10-17T04:13:33;13.83;;;10.37;;
7729;SDS011;3908;52.310;7.230;2022-10-17T04:16:34;12.60;;;10.37;;
7729;SDS011;3908;52.310;7.230;2022-10-17T04:19:24;12.17;;;9.10;;
7729;SDS011;3908;52.310;7.230;2022-10-17T04:22:11;13.47;;;9.10;;
7729;SDS011;3908;52.310;7.230;2022-10-17T04:24:59;14.63;;;9.23;;
7729;SDS011;3908;52.310;7.230;2022-10-17T04:27:47;13.80;;;8.90;;
7729;SDS011;3908;52.310;7.230;2022-10-17T04:30:34;32.10;;;10.23;;
7729;SDS011;3908;52.310;7.230;2022-10-17T04:33:22;28.07;;;9.90;;
7729;SDS011;3908;52.310;7.230;2022-10-17T04:36:10;11.80;;;8.93;;
7729;SDS011;3908;52.310;7.230;2022-10-17T04:38:58;12.13;;;8.90;;
7729;SDS011;3908;52.310;7.230;2022-10-17T04:41:46;14.10;;;8.93;;
7729;SDS011;3908;52.310;7.230;2022-10-17T04:44:34;13.70;;;8.77;;
7729;SDS011;3908;52.310;7.230;2022-10-17T04:47:22;12.33;;;8.70;;
7729;SDS011;3908;52.310;7.230;2022-10-17T04:50:09;11.27;;;8.20;;
7729;SDS011;3908;52.310;7.230;2022-10-17T04:52:56;11.40;;;8.40;;
7729;SDS011;3908;52.310;7.230;2022-10-17T04:55:43;13.43;;;9.43;;
7729;SDS011;3908;52.310;7.230;2022-10-17T04:58:32;11.87;;;8.47;;
7729;SDS011;3908;52.310;7.230;2022-10-17T05:01:21;11.53;;;8.00;;
7729;SDS011;3908;52.310;7.230;2022-10-17T05:04:09;13.10;;;9.00;;
7729;SDS011;3908;52.310;7.230;2022-10-17T05:06:56;11.27;;;9.60;;
7729;SDS011;3908;52.310;7.230;2022-10-17T05:09:43;13.30;;;8.50;;
7729;SDS011;3908;52.310;7.230;2022-10-17T05:12:30;14.00;;;9.53;;
7729;SDS011;3908;52.310;7.230;2022-10-17T05:15:19;10.63;;;8.20;;
7729;SDS011;3908;52.310;7.230;2022-10-17T05:18:08;12.90;;;9.90;;
7729;SDS011;3908;52.310;7.230;2022-10-17T05:20:55;12.57;;;9.03;;
7729;SDS011;3908;52.310;7.230;2022-10-17T05:23:42;21.87;;;9.43;;
7729;SDS011;3908;52.310;7.230;2022-10-17T05:26:29;14.13;;;9.17;;
7729;SDS011;3908;52.310;7.230;2022-10-17T05:29:19;16.83;;;9.43;;
7729;SDS011;3908;52.310;7.230;2022-10-17T05:32:06;13.80;;;8.97;;
7729;SDS011;3908;52.310;7.230;2022-10-17T05:38:04;16.10;;;8.70;;
7729;SDS011;3908;52.310;7.230;2022-10-17T05:40:55;10.50;;;8.40;;
7729;SDS011;3908;52.310;7.230;2022-10-17T05:43:43;12.50;;;8.70;;
7729;SDS011;3908;52.310;7.230;2022-10-17T05:46:30;14.57;;;9.20;;
7729;SDS011;3908;52.310;7.230;2022-10-17T05:49:20;13.27;;;8.83;;
7729;SDS011;3908;52.310;7.230;2022-10-17T05:55:26;14.00;;;9.37;;
7729;SDS011;3908;52.310;7.230;2022-10-17T05:58:13;13.90;;;9.50;;
7729;SDS011;3908;52.310;7.230;2022-10-17T06:01:04;13.63;;;9.53;;
7729;SDS011;3908;52.310;7.230;2022-10-17T06:03:56;15.67;;;9.80;;
7729;SDS011;3908;52.310;7.230;2022-10-17T06:06:43;15.00;;;9.70;;
7729;SDS011;3908;52.310;7.230;2022-10-17T06:09:32;12.50;;;9.20;;
7729;SDS011;3908;52.310;7.230;2022-10-17T06:12:19;12.10;;;9.07;;
7729;SDS011;3908;52.310;7.230;2022-10-17T06:15:06;13.47;;;10.03;;
7729;SDS011;3908;52.310;7.230;2022-10-17T06:17:54;15.20;;;10.20;;
7729;SDS011;3908;52.310;7.230;2022-10-17T06:20:45;14.77;;;9.60;;
7729;SDS011;3908;52.310;7.230;2022-10-17T06:23:35;14.43;;;10.30;;
7729;SDS011;3908;52.310;7.230;2022-10-17T06:26:24;14.33;;;10.03;;
7729;SDS011;3908;52.310;7.230;2022-10-17T06:29:11;13.00;;;10.10;;
7729;SDS011;3908;52.310;7.230;2022-10-17T06:32:03;15.70;;;9.93;;
7729;SDS011;3908;52.310;7.230;2022-10-17T06:34:53;13.90;;;10.40;;
7729;SDS011;3908;52.310;7.230;2022-10-17T06:37:40;14.20;;;10.07;;
7729;SDS011;3908;52.310;7.230;2022-10-17T06:40:36;15.37;;;9.30;;
7729;SDS011;3908;52.310;7.230;2022-10-17T06:43:25;12.80;;;9.40;;
7729;SDS011;3908;52.310;7.230;2022-10-17T06:46:14;15.50;;;9.43;;
7729;SDS011;3908;52.310;7.230;2022-10-17T06:49:09;13.53;;;9.60;;
7729;SDS011;3908;52.310;7.230;2022-10-17T06:52:06;17.60;;;9.63;;
7729;SDS011;3908;52.310;7.230;2022-10-17T06:54:57;13.77;;;9.93;;
7729;SDS011;3908;52.310;7.230;2022-10-17T06:57:44;20.80;;;9.80;;
7729;SDS011;3908;52.310;7.230;2022-10-17T07:00:45;13.87;;;9.73;;
7729;SDS011;3908;52.310;7.230;2022-10-17T07:03:37;11.93;;;8.87;;
7729;SDS011;3908;52.310;7.230;2022-10-17T07:06:24;11.50;;;8.90;;
7729;SDS011;3908;52.310;7.230;2022-10-17T07:09:20;17.10;;;9.70;;
7729;SDS011;3908;52.310;7.230;2022-10-17T07:12:10;13.30;;;8.93;;
7729;SDS011;3908;52.310;7.230;2022-10-17T07:15:04;12.80;;;8.63;;
7729;SDS011;3908;52.310;7.230;2022-10-17T07:17:53;12.80;;;8.60;;
7729;SDS011;3908;52.310;7.230;2022-10-17T07:20:41;14.70;;;9.20;;
7729;SDS011;3908;52.310;7.230;2022-10-17T07:23:45;15.33;;;8.83;;
7729;SDS011;3908;52.310;7.230;2022-10-17T07:26:34;12.70;;;8.63;;
7729;SDS011;3908;52.310;7.230;2022-10-17T07:29:22;14.33;;;8.67;;
7729;SDS011;3908;52.310;7.230;2022-10-17T07:32:30;13.13;;;8.90;;
7729;SDS011;3908;52.310;7.230;2022-10-17T07:35:32;11.43;;;8.77;;
7729;SDS011;3908;52.310;7.230;2022-10-17T07:38:25;12.77;;;8.50;;
7729;SDS011;3908;52.310;7.230;2022-10-17T07:41:12;13.27;;;8.73;;
7729;SDS011;3908;52.310;7.230;2022-10-17T07:43:59;15.30;;;8.90;;
7729;SDS011;3908;52.310;7.230;2022-10-17T07:46:47;16.20;;;8.73;;
7729;SDS011;3908;52.310;7.230;2022-10-17T07:49:34;13.43;;;8.83;;
7729;SDS011;3908;52.310;7.230;2022-10-17T07:52:28;11.57;;;8.23;;
7729;SDS011;3908;52.310;7.230;2022-10-17T07:55:18;11.13;;;7.80;;
7729;SDS011;3908;52.310;7.230;2022-10-17T07:58:10;13.37;;;8.23;;
7729;SDS011;3908;52.310;7.230;2022-10-17T08:00:59;14.10;;;8.37;;
7729;SDS011;3908;52.310;7.230;2022-10-17T08:03:46;14.60;;;7.73;;
7729;SDS011;3908;52.310;7.230;2022-10-17T08:06:34;11.20;;;7.40;;
7729;SDS011;3908;52.310;7.230;2022-10-17T08:09:22;10.70;;;7.37;;
7729;SDS011;3908;52.310;7.230;2022-10-17T08:12:09;10.70;;;7.97;;
7729;SDS011;3908;52.310;7.230;2022-10-17T08:14:56;10.30;;;7.17;;
7729;SDS011;3908;52.310;7.230;2022-10-17T08:17:43;10.20;;;6.90;;
7729;SDS011;3908;52.310;7.230;2022-10-17T08:20:31;12.13;;;6.77;;
7729;SDS011;3908;52.310;7.230;2022-10-17T08:23:18;9.03;;;6.40;;
7729;SDS011;3908;52.310;7.230;2022-10-17T08:26:06;7.63;;;5.90;;
7729;SDS011;3908;52.310;7.230;2022-10-17T08:28:54;11.93;;;6.63;;
7729;SDS011;3908;52.310;7.230;2022-10-17T08:31:42;9.37;;;5.97;;
7729;SDS011;3908;52.310;7.230;2022-10-17T08:34:29;9.13;;;5.20;;
7729;SDS011;3908;52.310;7.230;2022-10-17T08:37:16;9.03;;;5.70;;
7729;SDS011;3908;52.310;7.230;2022-10-17T08:40:03;9.33;;;5.77;;
7729;SDS011;3908;52.310;7.230;2022-10-17T08:42:59;9.77;;;5.03;;
7729;SDS011;3908;52.310;7.230;2022-10-17T08:46:01;12.37;;;5.30;;
7729;SDS011;3908;52.310;7.230;2022-10-17T08:48:53;13.20;;;5.80;;
7729;SDS011;3908;52.310;7.230;2022-10-17T08:51:46;7.32;;;4.60;;
7729;SDS011;3908;52.310;7.230;2022-10-17T08:54:39;10.70;;;4.77;;
7729;SDS011;3908;52.310;7.230;2022-10-17T08:57:32;9.27;;;5.63;;
7729;SDS011;3908;52.310;7.230;2022-10-17T09:00:23;6.22;;;4.55;;
7729;SDS011;3908;52.310;7.230;2022-10-17T09:03:15;5.53;;;4.10;;
7729;SDS011;3908;52.310;7.230;2022-10-17T09:06:16;6.93;;;4.20;;
7729;SDS011;3908;52.310;7.230;2022-10-17T09:09:12;9.60;;;4.90;;
7729;SDS011;3908;52.310;7.230;2022-10-17T09:12:13;7.30;;;4.47;;
7729;SDS011;3908;52.310;7.230;2022-10-17T09:15:11;6.50;;;4.20;;
7729;SDS011;3908;52.310;7.230;2022-10-17T09:18:16;6.13;;;4.00;;
7729;SDS011;3908;52.310;7.230;2022-10-17T09:21:24;6.55;;;4.47;;
7729;SDS011;3908;52.310;7.230;2022-10-17T09:24:22;5.07;;;4.45;;
7729;SDS011;3908;52.310;7.230;2022-10-17T09:27:22;8.30;;;4.75;;
7729;SDS011;3908;52.310;7.230;2022-10-17T09:33:24;9.93;;;4.53;;
7729;SDS011;3908;52.310;7.230;2022-10-17T09:36:18;7.47;;;4.22;;
7729;SDS011;3908;52.310;7.230;2022-10-17T09:39:15;7.75;;;4.40;;
7729;SDS011;3908;52.310;7.230;2022-10-17T09:42:18;7.53;;;4.35;;
7729;SDS011;3908;52.310;7.230;2022-10-17T09:45:20;10.23;;;4.53;;
7729;SDS011;3908;52.310;7.230;2022-10-17T09:48:20;9.00;;;4.30;;
7729;SDS011;3908;52.310;7.230;2022-10-17T09:51:11;10.77;;;4.28;;
7729;SDS011;3908;52.310;7.230;2022-10-17T09:54:10;7.28;;;3.97;;
7729;SDS011;3908;52.310;7.230;2022-10-17T09:57:05;9.73;;;4.65;;
7729;SDS011;3908;52.310;7.230;2022-10-17T09:59:56;6.20;;;3.53;;
7729;SDS011;3908;52.310;7.230;2022-10-17T10:02:45;7.38;;;4.10;;
7729;SDS011;3908;52.310;7.230;2022-10-17T10:05:39;6.15;;;4.15;;
7729;SDS011;3908;52.310;7.230;2022-10-17T10:08:28;5.70;;;4.53;;
7729;SDS011;3908;52.310;7.230;2022-10-17T10:11:17;7.43;;;3.90;;
7729;SDS011;3908;52.310;7.230;2022-10-17T10:14:19;8.07;;;4.85;;
7729;SDS011;3908;52.310;7.230;2022-10-17T10:17:23;7.20;;;4.40;;
7729;SDS011;3908;52.310;7.230;2022-10-17T10:20:26;7.03;;;4.47;;
7729;SDS011;3908;52.310;7.230;2022-10-17T10:23:20;7.47;;;4.35;;
7729;SDS011;3908;52.310;7.230;2022-10-17T10:26:19;7.03;;;4.13;;
7729;SDS011;3908;52.310;7.230;2022-10-17T10:29:25;5.50;;;4.20;;
7729;SDS011;3908;52.310;7.230;2022-10-17T10:32:17;12.63;;;4.78;;
7729;SDS011;3908;52.310;7.230;2022-10-17T10:35:17;11.10;;;5.03;;
7729;SDS011;3908;52.310;7.230;2022-10-17T10:38:07;11.23;;;4.43;;
7729;SDS011;3908;52.310;7.230;2022-10-17T10:44:03;8.90;;;4.80;;
7729;SDS011;3908;52.310;7.230;2022-10-17T10:47:04;10.43;;;4.53;;
7729;SDS011;3908;52.310;7.230;2022-10-17T10:50:05;7.07;;;5.22;;
7729;SDS011;3908;52.310;7.230;2022-10-17T10:53:00;5.18;;;4.50;;
7729;SDS011;3908;52.310;7.230;2022-10-17T10:55:55;9.17;;;5.70;;
7729;SDS011;3908;52.310;7.230;2022-10-17T10:58:50;10.67;;;6.30;;
7729;SDS011;3908;52.310;7.230;2022-10-17T11:01:43;12.37;;;6.47;;
7729;SDS011;3908;52.310;7.230;2022-10-17T11:04:36;11.57;;;5.07;;
7729;SDS011;3908;52.310;7.230;2022-10-17T11:07:28;13.43;;;5.20;;
7729;SDS011;3908;52.310;7.230;2022-10-17T11:10:24;6.97;;;4.67;;
7729;SDS011;3908;52.310;7.230;2022-10-17T11:13:21;10.10;;;5.20;;
7729;SDS011;3908;52.310;7.230;2022-10-17T11:16:17;6.90;;;5.37;;
7729;SDS011;3908;52.310;7.230;2022-10-17T11:19:13;8.63;;;5.37;;
7729;SDS011;3908;52.310;7.230;2022-10-17T11:22:12;7.13;;;5.13;;
7729;SDS011;3908;52.310;7.230;2022-10-17T11:25:03;9.20;;;4.77;;
7729;SDS011;3908;52.310;7.230;2022-10-17T11:28:00;8.60;;;5.60;;
7729;SDS011;3908;52.310;7.230;2022-10-17T11:30:50;8.53;;;5.40;;
7729;SDS011;3908;52.310;7.230;2022-10-17T11:33:44;9.83;;;4.73;;
7729;SDS011;3908;52.310;7.230;2022-10-17T11:36:38;9.40;;;5.67;;
7729;SDS011;3908;52.310;7.230;2022-10-17T11:39:35;9.73;;;5.43;;
7729;SDS011;3908;52.310;7.230;2022-10-17T11:42:30;8.80;;;4.93;;
7729;SDS011;3908;52.310;7.230;2022-10-17T11:45:22;9.97;;;5.40;;
7729;SDS011;3908;52.310;7.230;2022-10-17T11:48:17;7.00;;;5.20;;
7729;SDS011;3908;52.310;7.230;2022-10-17T11:51:11;9.57;;;5.07;;
7729;SDS011;3908;52.310;7.230;2022-10-17T11:54:04;8.17;;;5.63;;
7729;SDS011;3908;52.310;7.230;2022-10-17T11:57:05;10.80;;;5.53;;
7729;SDS011;3908;52.310;7.230;2022-10-17T12:00:05;9.80;;;7.10;;
7729;SDS011;3908;52.310;7.230;2022-10-17T12:03:06;15.13;;;6.60;;
7729;SDS011;3908;52.310;7.230;2022-10-17T12:06:07;8.10;;;6.60;;
7729;SDS011;3908;52.310;7.230;2022-10-17T12:09:03;8.63;;;6.47;;
7729;SDS011;3908;52.310;7.230;2022-10-17T12:11:56;10.77;;;6.53;;
7729;SDS011;3908;52.310;7.230;2022-10-17T12:14:45;10.80;;;6.57;;
7729;SDS011;3908;52.310;7.230;2022-10-17T12:17:33;11.77;;;6.87;;
7729;SDS011;3908;52.310;7.230;2022-10-17T12:20:27;10.77;;;7.43;;
7729;SDS011;3908;52.310;7.230;2022-10-17T12:23:20;11.73;;;7.20;;
7729;SDS011;3908;52.310;7.230;2022-10-17T12:26:12;13.47;;;7.50;;
7729;SDS011;3908;52.310;7.230;2022-10-17T12:29:16;11.63;;;7.10;;
7729;SDS011;3908;52.310;7.230;2022-10-17T12:32:14;9.10;;;6.93;;
7729;SDS011;3908;52.310;7.230;2022-10-17T12:35:01;9.37;;;6.80;;
7729;SDS011;3908;52.310;7.230;2022-10-17T12:37:58;7.57;;;6.20;;
7729;SDS011;3908;52.310;7.230;2022-10-17T12:43:58;9.10;;;6.90;;
7729;SDS011;3908;52.310;7.230;2022-10-17T12:46:46;9.90;;;7.40;;
7729;SDS011;3908;52.310;7.230;2022-10-17T12:49:36;10.90;;;7.53;;
7729;SDS011;3908;52.310;7.230;2022-10-17T12:55:42;11.80;;;7.75;;
7729;SDS011;3908;52.310;7.230;2022-10-17T12:58:31;11.23;;;7.83;;
7729;SDS011;3908;52.310;7.230;2022-10-17T13:01:21;12.57;;;7.43;;
7729;SDS011;3908;52.310;7.230;2022-10-17T13:04:13;12.43;;;7.33;;
7729;SDS011;3908;52.310;7.230;2022-10-17T13:07:01;11.47;;;7.80;;
7729;SDS011;3908;52.310;7.230;2022-10-17T13:09:53;9.93;;;7.30;;
7729;SDS011;3908;52.310;7.230;2022-10-17T13:12:41;11.23;;;7.10;;
7729;SDS011;3908;52.310;7.230;2022-10-17T13:15:30;10.40;;;8.20;;
7729;SDS011;3908;52.310;7.230;2022-10-17T13:18:18;10.60;;;7.90;;
7729;SDS011;3908;52.310;7.230;2022-10-17T13:21:13;11.67;;;7.37;;
7729;SDS011;3908;52.310;7.230;2022-10-17T13:24:07;13.70;;;8.23;;
7729;SDS011;3908;52.310;7.230;2022-10-17T13:27:20;12.35;;;7.22;;
7729;SDS011;3908;52.310;7.230;2022-10-17T13:30:33;10.63;;;7.60;;
7729;SDS011;3908;52.310;7.230;2022-10-17T13:33:29;11.40;;;7.63;;
7729;SDS011;3908;52.310;7.230;2022-10-17T13:36:19;11.07;;;8.23;;
7729;SDS011;3908;52.310;7.230;2022-10-17T13:39:07;13.23;;;8.77;;
7729;SDS011;3908;52.310;7.230;2022-10-17T13:41:58;10.67;;;6.67;;
7729;SDS011;3908;52.310;7.230;2022-10-17T13:45:19;11.87;;;8.33;;
7729;SDS011;3908;52.310;7.230;2022-10-17T13:48:17;14.63;;;8.90;;
7729;SDS011;3908;52.310;7.230;2022-10-17T13:51:06;13.17;;;8.50;;
7729;SDS011;3908;52.310;7.230;2022-10-17T13:53:53;13.53;;;8.40;;
7729;SDS011;3908;52.310;7.230;2022-10-17T13:56:41;12.77;;;8.80;;
7729;SDS011;3908;52.310;7.230;2022-10-17T13:59:29;14.03;;;8.80;;
7729;SDS011;3908;52.310;7.230;2022-10-17T14:02:26;9.73;;;8.07;;
7729;SDS011;3908;52.310;7.230;2022-10-17T14:05:34;18.07;;;8.33;;
7729;SDS011;3908;52.310;7.230;2022-10-17T14:08:23;12.90;;;8.77;;
7729;SDS011;3908;52.310;7.230;2022-10-17T14:11:28;17.23;;;9.30;;
7729;SDS011;3908;52.310;7.230;2022-10-17T14:14:19;10.80;;;8.43;;
7729;SDS011;3908;52.310;7.230;2022-10-17T14:17:13;13.80;;;8.73;;
7729;SDS011;3908;52.310;7.230;2022-10-17T14:20:03;16.13;;;8.13;;
7729;SDS011;3908;52.310;7.230;2022-10-17T14:22:56;14.77;;;7.97;;
7729;SDS011;3908;52.310;7.230;2022-10-17T14:25:47;15.27;;;7.83;;
7729;SDS011;3908;52.310;7.230;2022-10-17T14:29:03;16.37;;;7.50;;
7729;SDS011;3908;52.310;7.230;2022-10-17T14:32:11;12.43;;;7.57;;
7729;SDS011;3908;52.310;7.230;2022-10-17T14:35:02;11.97;;;7.97;;
7729;SDS011;3908;52.310;7.230;2022-10-17T14:37:51;9.87;;;7.50;;
7729;SDS011;3908;52.310;7.230;2022-10-17T14:40:49;14.03;;;7.73;;
7729;SDS011;3908;52.310;7.230;2022-10-17T14:43:40;11.30;;;8.70;;
7729;SDS011;3908;52.310;7.230;2022-10-17T14:46:30;9.57;;;7.63;;
7729;SDS011;3908;52.310;7.230;2022-10-17T14:49:21;13.23;;;8.37;;
7729;SDS011;3908;52.310;7.230;2022-10-17T14:52:28;13.77;;;8.43;;
7729;SDS011;3908;52.310;7.230;2022-10-17T14:55:20;15.73;;;8.00;;
7729;SDS011;3908;52.310;7.230;2022-10-17T14:58:16;17.13;;;8.20;;
7729;SDS011;3908;52.310;7.230;2022-10-17T15:01:04;14.50;;;8.33;;
7729;SDS011;3908;52.310;7.230;2022-10-17T15:03:51;15.20;;;7.60;;
7729;SDS011;3908;52.310;7.230;2022-10-17T15:06:38;11.80;;;8.47;;
7729;SDS011;3908;52.310;7.230;2022-10-17T15:09:25;13.07;;;7.97;;
7729;SDS011;3908;52.310;7.230;2022-10-17T15:12:14;14.60;;;8.60;;
7729;SDS011;3908;52.310;7.230;2022-10-17T15:15:05;13.57;;;8.63;;
7729;SDS011;3908;52.310;7.230;2022-10-17T15:17:53;13.53;;;8.10;;
7729;SDS011;3908;52.310;7.230;2022-10-17T15:20:42;12.00;;;8.73;;
7729;SDS011;3908;52.310;7.230;2022-10-17T15:23:29;17.73;;;9.67;;
7729;SDS011;3908;52.310;7.230;2022-10-17T15:26:18;14.73;;;10.30;;
7729;SDS011;3908;52.310;7.230;2022-10-17T15:29:09;20.93;;;16.40;;
7729;SDS011;3908;52.310;7.230;2022-10-17T15:32:02;27.73;;;21.83;;
7729;SDS011;3908;52.310;7.230;2022-10-17T15:34:49;27.97;;;21.23;;
7729;SDS011;3908;52.310;7.230;2022-10-17T15:37:36;17.03;;;12.30;;
7729;SDS011;3908;52.310;7.230;2022-10-17T15:40:24;30.27;;;19.67;;
7729;SDS011;3908;52.310;7.230;2022-10-17T15:43:13;23.60;;;15.33;;
7729;SDS011;3908;52.310;7.230;2022-10-17T15:46:02;15.33;;;11.43;;
7729;SDS011;3908;52.310;7.230;2022-10-17T15:48:51;15.23;;;10.40;;
7729;SDS011;3908;52.310;7.230;2022-10-17T15:51:41;17.30;;;12.60;;
7729;SDS011;3908;52.310;7.230;2022-10-17T15:54:29;18.43;;;14.00;;
7729;SDS011;3908;52.310;7.230;2022-10-17T15:57:17;17.17;;;13.43;;
7729;SDS011;3908;52.310;7.230;2022-10-17T16:00:07;17.53;;;12.43;;
7729;SDS011;3908;52.310;7.230;2022-10-17T16:03:01;15.43;;;10.97;;
7729;SDS011;3908;52.310;7.230;2022-10-17T16:05:49;12.60;;;9.97;;
7729;SDS011;3908;52.310;7.230;2022-10-17T16:08:36;13.77;;;8.90;;
7729;SDS011;3908;52.310;7.230;2022-10-17T16:11:26;14.40;;;10.57;;
7729;SDS011;3908;52.310;7.230;2022-10-17T16:14:15;16.30;;;10.43;;
7729;SDS011;3908;52.310;7.230;2022-10-17T16:17:02;17.87;;;11.17;;
7729;SDS011;3908;52.310;7.230;2022-10-17T16:19:49;16.40;;;11.93;;
7729;SDS011;3908;52.310;7.230;2022-10-17T16:22:40;16.87;;;13.30;;
7729;SDS011;3908;52.310;7.230;2022-10-17T16:25:29;20.00;;;11.57;;
7729;SDS011;3908;52.310;7.230;2022-10-17T16:28:17;17.30;;;11.37;;
7729;SDS011;3908;52.310;7.230;2022-10-17T16:31:07;22.67;;;12.90;;
7729;SDS011;3908;52.310;7.230;2022-10-17T16:34:09;16.97;;;8.40;;
7729;SDS011;3908;52.310;7.230;2022-10-17T16:36:57;11.63;;;8.23;;
7729;SDS011;3908;52.310;7.230;2022-10-17T16:39:46;12.30;;;8.37;;
7729;SDS011;3908;52.310;7.230;2022-10-17T16:42:38;12.37;;;8.33;;
7729;SDS011;3908;52.310;7.230;2022-10-17T16:45:25;18.03;;;8.27;;
7729;SDS011;3908;52.310;7.230;2022-10-17T16:48:12;13.50;;;8.10;;
7729;SDS011;3908;52.310;7.230;2022-10-17T16:51:00;10.10;;;7.63;;
7729;SDS011;3908;52.310;7.230;2022-10-17T16:53:49;11.13;;;7.90;;
7729;SDS011;3908;52.310;7.230;2022-10-17T16:56:40;12.97;;;8.60;;
7729;SDS011;3908;52.310;7.230;2022-10-17T16:59:27;12.93;;;8.20;;
7729;SDS011;3908;52.310;7.230;2022-10-17T17:02:15;12.30;;;8.90;;
7729;SDS011;3908;52.310;7.230;2022-10-17T17:05:03;13.57;;;8.67;;
7729;SDS011;3908;52.310;7.230;2022-10-17T17:07:51;11.10;;;8.90;;
7729;SDS011;3908;52.310;7.230;2022-10-17T17:10:42;12.70;;;8.80;;
7729;SDS011;3908;52.310;7.230;2022-10-17T17:13:31;13.23;;;9.30;;
7729;SDS011;3908;52.310;7.230;2022-10-17T17:16:20;13.67;;;9.10;;
7729;SDS011;3908;52.310;7.230;2022-10-17T17:19:11;12.73;;;9.37;;
7729;SDS011;3908;52.310;7.230;2022-10-17T17:22:04;13.77;;;9.30;;
7729;SDS011;3908;52.310;7.230;2022-10-17T17:24:52;25.90;;;10.40;;
7729;SDS011;3908;52.310;7.230;2022-10-17T17:27:39;12.13;;;10.20;;
7729;SDS011;3908;52.310;7.230;2022-10-17T17:30:29;15.10;;;10.90;;
7729;SDS011;3908;52.310;7.230;2022-10-17T17:33:17;14.47;;;9.60;;
7729;SDS011;3908;52.310;7.230;2022-10-17T17:36:05;17.67;;;10.43;;
7729;SDS011;3908;52.310;7.230;2022-10-17T17:38:54;16.93;;;11.33;;
7729;SDS011;3908;52.310;7.230;2022-10-17T17:41:42;16.00;;;11.00;;
7729;SDS011;3908;52.310;7.230;2022-10-17T17:44:30;13.63;;;10.03;;
7729;SDS011;3908;52.310;7.230;2022-10-17T17:47:30;15.43;;;11.00;;
7729;SDS011;3908;52.310;7.230;2022-10-17T17:51:01;14.07;;;11.17;;
7729;SDS011;3908;52.310;7.230;2022-10-17T17:57:28;18.70;;;12.57;;
7729;SDS011;3908;52.310;7.230;2022-10-17T18:00:30;17.87;;;12.00;;
7729;SDS011;3908;52.310;7.230;2022-10-17T18:03:25;17.57;;;12.83;;
7729;SDS011;3908;52.310;7.230;2022-10-17T18:06:13;17.93;;;12.50;;
7729;SDS011;3908;52.310;7.230;2022-10-17T18:09:00;18.50;;;11.87;;